createdAt,value
2019-05-30T00:00:33.783Z,1.23
2019-05-30T00:03:02.662Z,1.10
2019-05-30T00:05:31.566Z,1.20
2019-05-30T00:08:00.430Z,1.30
2019-05-30T00:10:29.330Z,1.10
2019-05-30T00:12:58.647Z,1.30
2019-05-30T00:15:27.523Z,1.10
2019-05-30T00:17:56.739Z,0.70
2019-05-30T00:20:25.683Z,0.97
2019-05-30T00:22:54.650Z,1.00
2019-05-30T00:25:23.456Z,0.90
2019-05-30T00:27:52.528Z,0.87
2019-05-30T00:30:24.729Z,1.10
2019-05-30T00:32:51.859Z,0.83
2019-05-30T00:35:20.767Z,1.23
2019-05-30T00:37:49.657Z,1.00
2019-05-30T00:40:18.620Z,0.70
2019-05-30T00:42:47.537Z,0.77
2019-05-30T00:45:20.875Z,1.00
2019-05-30T00:47:47.238Z,1.20
2019-05-30T00:50:16.223Z,0.83
2019-05-30T00:52:45.081Z,1.00
2019-05-30T00:55:13.930Z,0.90
2019-05-30T00:57:42.865Z,0.83
2019-05-30T01:00:11.755Z,1.00
2019-05-30T01:02:40.631Z,1.07
2019-05-30T01:05:10.013Z,1.67
2019-05-30T01:07:38.869Z,0.97
2019-05-30T01:13:01.572Z,0.80
2019-05-30T01:15:30.486Z,0.90
2019-05-30T01:17:59.350Z,1.30
2019-05-30T01:20:28.200Z,0.93
2019-05-30T01:22:57.106Z,0.90
2019-05-30T01:25:25.963Z,1.00
2019-05-30T01:27:54.826Z,1.10
2019-05-30T01:30:23.804Z,0.70
2019-05-30T01:32:52.907Z,1.20
2019-05-30T01:35:21.890Z,0.60
2019-05-30T01:37:50.826Z,1.10
2019-05-30T01:40:19.754Z,1.00
2019-05-30T01:42:48.606Z,0.70
2019-05-30T01:45:17.575Z,0.60
2019-05-30T01:47:46.428Z,0.90
2019-05-30T01:50:15.575Z,0.93
2019-05-30T01:52:45.017Z,1.00
2019-05-30T01:55:13.879Z,1.00
2019-05-30T01:57:42.755Z,0.73
2019-05-30T02:00:20.867Z,1.23
2019-05-30T02:02:46.494Z,0.80
2019-05-30T02:05:16.908Z,1.07
2019-05-30T02:07:45.829Z,0.90
2019-05-30T02:10:15.783Z,1.00
2019-05-30T02:12:44.647Z,1.07
2019-05-30T02:15:15.908Z,1.00
2019-05-30T02:17:44.761Z,0.90
2019-05-30T02:20:13.927Z,0.80
2019-05-30T02:22:42.831Z,0.80
2019-05-30T02:25:11.863Z,1.20
2019-05-30T02:27:40.778Z,0.90
2019-05-30T02:30:12.465Z,0.70
2019-05-30T02:32:41.087Z,0.90
2019-05-30T02:35:12.532Z,0.93
2019-05-30T02:37:40.709Z,1.00
2019-05-30T02:40:14.591Z,1.00
2019-05-30T02:42:40.650Z,1.00
2019-05-30T02:45:12.515Z,0.80
2019-05-30T02:47:41.096Z,1.10
2019-05-30T02:50:13.334Z,0.97
2019-05-30T02:52:41.120Z,1.10
2019-05-30T02:55:13.034Z,1.00
2019-05-30T02:57:41.123Z,0.90
2019-05-30T03:00:16.086Z,0.80
2019-05-30T03:02:41.246Z,1.17
2019-05-30T03:05:12.805Z,0.90
2019-05-30T03:07:40.748Z,1.10
2019-05-30T03:10:14.348Z,1.30
2019-05-30T03:12:40.767Z,0.90
2019-05-30T03:15:14.341Z,0.93
2019-05-30T03:17:41.070Z,1.10
2019-05-30T03:20:21.511Z,1.27
2019-05-30T03:22:41.657Z,1.13
2019-05-30T03:25:19.808Z,1.10
2019-05-30T03:27:48.684Z,1.03
2019-05-30T03:30:27.283Z,1.30
2019-05-30T03:33:19.199Z,1.07
2019-05-30T03:35:28.680Z,1.17
2019-05-30T03:37:51.269Z,0.90
2019-05-30T03:40:23.499Z,1.07
2019-05-30T03:42:51.829Z,1.00
2019-05-30T03:45:20.944Z,1.30
2019-05-30T03:47:52.779Z,0.90
2019-05-30T03:50:26.057Z,1.50
2019-05-30T03:52:55.753Z,1.17
2019-05-30T03:55:26.966Z,1.23
2019-05-30T03:58:25.790Z,1.00
2019-05-30T04:01:05.773Z,1.30
2019-05-30T04:03:43.690Z,0.80
2019-05-30T04:06:19.306Z,1.40
2019-05-30T04:08:51.395Z,1.10
2019-05-30T04:11:23.249Z,1.07
2019-05-30T04:13:57.789Z,1.17
2019-05-30T04:16:26.695Z,1.50
2019-05-30T04:19:00.206Z,1.10
2019-05-30T04:21:29.164Z,1.20
2019-05-30T04:23:58.130Z,1.60
2019-05-30T04:26:27.020Z,1.73
2019-05-30T04:28:55.919Z,1.80
2019-05-30T04:31:24.822Z,1.20
2019-05-30T04:33:53.685Z,1.30
2019-05-30T04:36:22.557Z,1.17
2019-05-30T04:38:51.477Z,1.77
2019-05-30T04:41:20.965Z,1.93
2019-05-30T04:43:51.616Z,1.23
2019-05-30T04:46:21.746Z,1.60
2019-05-30T04:48:51.011Z,1.87
2019-05-30T04:51:21.642Z,1.60
2019-05-30T04:53:50.709Z,2.67
2019-05-30T04:56:21.732Z,3.17
2019-05-30T04:58:50.058Z,4.40
2019-05-30T05:01:20.266Z,3.93
2019-05-30T05:03:49.483Z,4.13
2019-05-30T05:06:19.740Z,4.17
2019-05-30T05:08:48.887Z,4.17
2019-05-30T05:11:20.948Z,5.83
2019-05-30T05:13:48.310Z,3.33
2019-05-30T05:16:28.395Z,4.43
2019-05-30T05:18:47.735Z,3.23
2019-05-30T05:21:16.869Z,3.63
2019-05-30T05:23:47.157Z,4.67
2019-05-30T05:26:16.074Z,3.30
2019-05-30T05:28:45.142Z,3.30
2019-05-30T05:31:14.455Z,6.47
2019-05-30T05:33:55.803Z,4.63
2019-05-30T05:36:14.842Z,4.40
2019-05-30T05:38:43.832Z,8.00
2019-05-30T05:41:12.754Z,5.10
2019-05-30T05:43:41.618Z,5.87
2019-05-30T05:46:10.490Z,4.83
2019-05-30T05:48:39.409Z,4.17
2019-05-30T05:51:08.229Z,3.67
2019-05-30T05:53:37.107Z,5.33
2019-05-30T05:56:06.006Z,4.40
2019-05-30T05:58:34.904Z,4.90
2019-05-30T06:01:04.336Z,2.83
2019-05-30T06:03:33.230Z,4.93
2019-05-30T06:06:02.111Z,4.67
2019-05-30T06:08:31.012Z,4.10
2019-05-30T06:10:59.929Z,4.03
2019-05-30T06:13:29.085Z,4.67
2019-05-30T06:15:58.033Z,4.43
2019-05-30T06:18:26.945Z,3.50
2019-05-30T06:20:55.814Z,5.37
2019-05-30T06:23:25.730Z,4.50
2019-05-30T06:25:54.734Z,4.67
2019-05-30T06:28:24.186Z,2.83
2019-05-30T06:30:53.655Z,2.77
2019-05-30T06:33:23.470Z,3.87
2019-05-30T06:35:53.125Z,3.93
2019-05-30T06:38:23.075Z,5.03
2019-05-30T06:40:52.155Z,3.57
2019-05-30T06:43:24.340Z,4.37
2019-05-30T06:45:53.348Z,2.87
2019-05-30T06:48:22.682Z,3.03
2019-05-30T06:50:51.678Z,4.30
2019-05-30T06:53:21.022Z,4.03
2019-05-30T06:55:50.200Z,3.43
2019-05-30T06:58:19.082Z,3.33
2019-05-30T07:00:47.983Z,4.17
2019-05-30T07:03:16.835Z,3.47
2019-05-30T07:05:46.234Z,3.17
2019-05-30T07:08:16.401Z,3.53
2019-05-30T07:10:45.269Z,3.23
2019-05-30T07:13:14.126Z,3.57
2019-05-30T07:15:43.088Z,3.43
2019-05-30T07:18:11.947Z,3.83
2019-05-30T07:20:40.821Z,3.93
2019-05-30T07:23:09.717Z,4.70
2019-05-30T07:25:38.622Z,4.03
2019-05-30T07:28:07.487Z,3.07
2019-05-30T07:30:36.373Z,4.43
2019-05-30T07:33:05.431Z,3.83
2019-05-30T07:35:34.499Z,3.60
2019-05-30T07:38:03.401Z,3.53
2019-05-30T07:40:32.798Z,3.13
2019-05-30T07:43:01.778Z,3.63
2019-05-30T07:45:31.071Z,3.77
2019-05-30T07:48:00.125Z,3.13
2019-05-30T07:50:30.348Z,3.63
2019-05-30T07:52:59.365Z,3.30
2019-05-30T07:55:28.883Z,3.20
2019-05-30T07:57:57.963Z,2.47
2019-05-30T08:00:27.457Z,2.43
2019-05-30T08:02:56.541Z,2.57
2019-05-30T08:05:26.600Z,1.63
2019-05-30T08:07:55.668Z,1.67
2019-05-30T08:10:24.525Z,1.70
2019-05-30T08:12:53.383Z,1.73
2019-05-30T08:15:22.347Z,1.53
2019-05-30T08:17:51.222Z,1.43
2019-05-30T08:20:20.230Z,2.00
2019-05-30T08:22:49.142Z,1.73
2019-05-30T08:25:21.570Z,1.77
2019-05-30T08:27:51.965Z,1.30
2019-05-30T08:30:21.314Z,1.70
2019-05-30T08:32:50.179Z,1.70
2019-05-30T08:35:19.159Z,1.43
2019-05-30T08:37:48.114Z,2.90
2019-05-30T08:40:18.418Z,1.20
2019-05-30T08:42:47.291Z,1.33
2019-05-30T08:45:16.407Z,1.80
2019-05-30T08:47:45.228Z,1.60
2019-05-30T08:50:14.334Z,1.50
2019-05-30T08:52:43.350Z,1.30
2019-05-30T08:55:15.597Z,1.40
2019-05-30T08:57:44.459Z,1.57
2019-05-30T09:00:15.579Z,1.20
2019-05-30T09:02:45.098Z,1.10
2019-05-30T09:05:14.405Z,1.37
2019-05-30T09:07:44.509Z,1.23
2019-05-30T09:10:14.384Z,1.20
2019-05-30T09:12:46.174Z,1.20
2019-05-30T09:15:15.155Z,2.43
2019-05-30T09:17:44.719Z,1.17
2019-05-30T09:20:16.175Z,1.23
2019-05-30T09:22:45.522Z,1.20
2019-05-30T09:25:15.966Z,2.00
2019-05-30T09:27:46.406Z,1.43
2019-05-30T09:30:16.838Z,1.50
2019-05-30T09:32:46.850Z,1.67
2019-05-30T09:35:17.546Z,1.17
2019-05-30T09:37:47.650Z,2.17
2019-05-30T09:40:17.405Z,1.60
2019-05-30T09:42:47.346Z,1.67
2019-05-30T09:45:19.698Z,1.83
2019-05-30T09:47:49.308Z,1.30
2019-05-30T09:50:18.986Z,1.57
2019-05-30T09:52:49.203Z,1.77
2019-05-30T09:55:18.753Z,1.60
2019-05-30T09:57:47.700Z,0.73
2019-05-30T10:00:19.393Z,0.93
2019-05-30T10:02:48.748Z,0.80
2019-05-30T10:05:18.039Z,0.90
2019-05-30T10:07:47.431Z,1.40
2019-05-30T10:10:18.530Z,1.17
2019-05-30T10:12:48.539Z,1.63
2019-05-30T10:15:18.134Z,1.40
2019-05-30T10:17:48.115Z,1.30
2019-05-30T10:20:19.197Z,0.90
2019-05-30T10:22:49.040Z,1.40
2019-05-30T10:25:18.726Z,1.13
2019-05-30T10:27:48.911Z,1.37
2019-05-30T10:30:20.009Z,1.00
2019-05-30T10:32:50.170Z,1.23
2019-05-30T10:35:20.574Z,1.40
2019-05-30T10:37:50.752Z,1.10
2019-05-30T10:40:20.111Z,1.67
2019-05-30T10:42:50.698Z,1.10
2019-05-30T10:45:21.816Z,1.20
2019-05-30T10:47:51.344Z,1.07
2019-05-30T10:50:20.493Z,0.90
2019-05-30T10:52:49.529Z,1.00
2019-05-30T10:55:19.269Z,1.10
2019-05-30T10:57:48.628Z,0.80
2019-05-30T11:00:42.869Z,1.87
2019-05-30T11:03:11.875Z,1.10
2019-05-30T11:05:41.109Z,1.40
2019-05-30T11:08:15.884Z,1.37
2019-05-30T11:10:44.843Z,0.93
2019-05-30T11:13:16.126Z,1.37
2019-05-30T11:15:45.046Z,1.17
2019-05-30T11:18:14.379Z,1.23
2019-05-30T11:20:43.606Z,0.83
2019-05-30T11:23:12.490Z,0.90
2019-05-30T11:25:41.443Z,1.40
2019-05-30T11:28:10.410Z,1.43
2019-05-30T11:30:39.287Z,0.80
2019-05-30T11:33:08.199Z,1.10
2019-05-30T11:35:37.073Z,1.20
2019-05-30T11:38:07.094Z,1.13
2019-05-30T11:40:36.050Z,1.30
2019-05-30T11:43:04.943Z,1.10
2019-05-30T11:45:33.892Z,1.40
2019-05-30T11:48:02.807Z,1.67
2019-05-30T11:50:33.721Z,1.20
2019-05-30T11:53:03.202Z,1.10
2019-05-30T11:55:32.588Z,1.30
2019-05-30T11:58:01.511Z,1.10
2019-05-30T12:00:31.112Z,0.83
2019-05-30T12:03:00.690Z,1.20
2019-05-30T12:05:29.688Z,1.50
2019-05-30T12:08:00.995Z,0.90
2019-05-30T12:10:31.782Z,0.93
2019-05-30T12:13:01.631Z,0.80
2019-05-30T12:15:30.624Z,1.20
2019-05-30T12:17:59.575Z,1.00
2019-05-30T12:20:28.593Z,1.70
2019-05-30T12:22:57.966Z,0.93
2019-05-30T12:25:26.994Z,1.00
2019-05-30T12:27:56.072Z,1.27
2019-05-30T12:30:25.427Z,0.80
2019-05-30T12:32:54.477Z,1.20
2019-05-30T12:35:24.154Z,1.80
2019-05-30T12:37:56.138Z,1.07
2019-05-30T12:40:24.819Z,1.10
2019-05-30T12:42:56.449Z,1.27
2019-05-30T12:45:25.051Z,1.30
2019-05-30T12:47:55.004Z,1.23
2019-05-30T12:50:24.188Z,1.07
2019-05-30T12:52:53.446Z,0.93
2019-05-30T12:55:22.553Z,1.10
2019-05-30T12:57:51.686Z,0.87
2019-05-30T13:00:23.488Z,0.73
2019-05-30T13:02:52.524Z,0.70
2019-05-30T13:05:27.106Z,0.70
2019-05-30T13:08:13.048Z,0.70
2019-05-30T13:10:27.285Z,0.90
2019-05-30T13:12:57.423Z,0.70
2019-05-30T13:15:26.605Z,0.63
2019-05-30T13:17:56.026Z,1.10
2019-05-30T13:20:26.254Z,0.87
2019-05-30T13:22:56.145Z,0.63
2019-05-30T13:25:25.754Z,0.70
2019-05-30T13:27:55.646Z,0.90
2019-05-30T13:30:26.113Z,0.97
2019-05-30T13:33:03.036Z,1.50
2019-05-30T13:35:32.308Z,1.40
2019-05-30T13:38:01.363Z,0.80
2019-05-30T13:40:30.486Z,0.90
2019-05-30T13:42:59.737Z,0.90
2019-05-30T13:45:28.911Z,0.90
2019-05-30T13:47:58.310Z,1.10
2019-05-30T13:50:27.634Z,1.40
2019-05-30T13:52:56.507Z,0.97
2019-05-30T13:55:28.196Z,1.13
2019-05-30T13:57:55.932Z,1.07
2019-05-30T14:00:25.810Z,1.30
2019-05-30T14:02:54.651Z,0.87
2019-05-30T14:05:23.683Z,1.10
2019-05-30T14:07:52.567Z,1.50
2019-05-30T14:10:21.435Z,3.27
2019-05-30T14:12:50.355Z,1.53
2019-05-30T14:15:19.880Z,1.37
2019-05-30T14:17:48.761Z,1.50
2019-05-30T14:20:18.179Z,1.53
2019-05-30T14:22:47.104Z,1.30
2019-05-30T14:25:16.388Z,1.77
2019-05-30T14:27:45.256Z,1.47
2019-05-30T14:30:14.390Z,1.63
2019-05-30T14:32:43.247Z,1.20
2019-05-30T14:35:13.909Z,2.00
2019-05-30T14:37:43.042Z,1.10
2019-05-30T14:40:14.358Z,1.63
2019-05-30T14:42:43.328Z,1.00
2019-05-30T14:45:14.848Z,1.10
2019-05-30T14:47:43.824Z,1.83
2019-05-30T14:50:13.583Z,1.13
2019-05-30T14:52:42.502Z,1.30
2019-05-30T14:55:13.101Z,1.77
2019-05-30T14:57:42.342Z,1.30
2019-05-30T15:00:13.725Z,1.40
2019-05-30T15:02:43.101Z,1.73
2019-05-30T15:05:13.786Z,1.23
2019-05-30T15:07:43.371Z,1.00
2019-05-30T15:10:13.094Z,1.00
2019-05-30T15:12:42.748Z,0.90
2019-05-30T15:15:16.737Z,2.00
2019-05-30T15:17:44.234Z,1.30
2019-05-30T15:20:13.961Z,1.20
2019-05-30T15:22:43.034Z,2.17
2019-05-30T15:25:16.521Z,2.33
2019-05-30T15:27:45.353Z,1.00
2019-05-30T15:30:19.041Z,0.90
2019-05-30T15:32:47.893Z,1.03
2019-05-30T15:35:19.076Z,0.80
2019-05-30T15:37:47.654Z,0.90
2019-05-30T15:40:17.208Z,1.27
2019-05-30T15:42:46.195Z,1.53
2019-05-30T15:45:16.111Z,1.17
2019-05-30T15:47:45.190Z,2.17
2019-05-30T15:50:15.356Z,1.07
2019-05-30T15:52:45.815Z,1.60
2019-05-30T15:55:15.678Z,1.30
2019-05-30T15:57:45.912Z,1.00
2019-05-30T16:00:16.358Z,0.80
2019-05-30T16:02:45.235Z,1.13
2019-05-30T16:05:14.667Z,0.80
2019-05-30T16:07:44.959Z,1.20
2019-05-30T16:10:14.915Z,1.00
2019-05-30T16:12:43.796Z,1.60
2019-05-30T16:15:13.441Z,1.33
2019-05-30T16:17:42.500Z,1.00
2019-05-30T16:20:12.034Z,1.40
2019-05-30T16:22:41.328Z,1.23
2019-05-30T16:25:10.526Z,1.00
2019-05-30T16:27:39.408Z,1.10
2019-05-30T16:30:10.562Z,2.00
2019-05-30T16:32:39.620Z,1.10
2019-05-30T16:35:10.090Z,1.77
2019-05-30T16:37:39.013Z,1.10
2019-05-30T16:40:08.683Z,1.30
2019-05-30T16:42:37.649Z,2.43
2019-05-30T16:45:10.283Z,1.40
2019-05-30T16:47:39.205Z,1.60
2019-05-30T16:50:08.983Z,1.77
2019-05-30T16:52:37.889Z,1.73
2019-05-30T16:55:10.366Z,1.47
2019-05-30T16:57:39.341Z,2.47
2019-05-30T17:00:10.499Z,2.20
2019-05-30T17:02:39.367Z,1.90
2019-05-30T17:05:08.533Z,1.47
2019-05-30T17:07:37.430Z,1.70
2019-05-30T17:10:21.263Z,1.33
2019-05-30T17:12:38.406Z,1.70
2019-05-30T17:15:10.227Z,1.50
2019-05-30T17:17:39.095Z,1.40
2019-05-30T17:20:09.256Z,1.00
2019-05-30T17:22:38.177Z,1.50
2019-05-30T17:25:07.730Z,1.00
2019-05-30T17:27:36.596Z,0.93
2019-05-30T17:30:13.332Z,1.33
2019-05-30T17:32:42.195Z,1.23
2019-05-30T17:35:11.866Z,1.43
2019-05-30T17:37:40.771Z,1.00
2019-05-30T17:40:11.374Z,0.80
2019-05-30T17:42:40.303Z,1.40
2019-05-30T17:45:10.229Z,1.23
2019-05-30T17:47:39.166Z,1.10
2019-05-30T17:50:13.112Z,1.17
2019-05-30T17:52:42.014Z,1.50
2019-05-30T17:55:11.554Z,0.90
2019-05-30T17:57:40.564Z,1.40
2019-05-30T18:00:15.426Z,0.90
2019-05-30T18:02:44.276Z,1.23
2019-05-30T18:05:13.951Z,1.10
2019-05-30T18:07:42.968Z,0.90
2019-05-30T18:10:12.602Z,1.40
2019-05-30T18:12:41.597Z,1.10
2019-05-30T18:15:15.493Z,1.00
2019-05-30T18:17:44.428Z,1.00
2019-05-30T18:20:13.987Z,1.67
2019-05-30T18:22:43.025Z,0.70
2019-05-30T18:25:13.319Z,0.90
2019-05-30T18:27:42.200Z,0.73
2019-05-30T18:30:12.115Z,1.03
2019-05-30T18:32:40.980Z,0.90
2019-05-30T18:35:11.364Z,1.00
2019-05-30T18:37:40.496Z,1.00
2019-05-30T18:40:09.714Z,0.80
2019-05-30T18:42:38.796Z,0.80
2019-05-30T18:45:10.478Z,0.70
2019-05-30T18:47:39.469Z,1.10
2019-05-30T18:50:12.834Z,1.47
2019-05-30T18:52:41.952Z,1.20
2019-05-30T18:55:10.802Z,0.90
2019-05-30T18:57:40.032Z,1.00
2019-05-30T19:00:10.357Z,0.90
2019-05-30T19:02:40.018Z,0.70
2019-05-30T19:05:09.174Z,1.10
2019-05-30T19:07:38.390Z,0.70
2019-05-30T19:10:08.993Z,0.70
2019-05-30T19:12:38.162Z,1.47
2019-05-30T19:15:07.729Z,1.37
2019-05-30T19:17:36.738Z,1.50
2019-05-30T19:20:07.532Z,1.63
2019-05-30T19:22:36.670Z,1.00
2019-05-30T19:25:07.642Z,0.90
2019-05-30T19:27:38.314Z,0.80
2019-05-30T19:30:11.907Z,0.93
2019-05-30T19:32:40.763Z,0.70
2019-05-30T19:35:10.428Z,1.23
2019-05-30T19:37:39.508Z,0.80
2019-05-30T19:40:08.802Z,0.90
2019-05-30T19:42:37.960Z,0.90
2019-05-30T19:45:11.599Z,1.10
2019-05-30T19:47:40.464Z,1.10
2019-05-30T19:50:10.251Z,0.90
2019-05-30T19:52:39.285Z,1.10
2019-05-30T19:55:08.636Z,0.80
2019-05-30T19:57:37.884Z,1.00
2019-05-30T20:00:08.594Z,0.97
2019-05-30T20:02:38.308Z,0.73
2019-05-30T20:05:08.154Z,0.87
2019-05-30T20:07:37.087Z,0.70
2019-05-30T20:10:10.537Z,0.97
2019-05-30T20:12:39.398Z,0.90
2019-05-30T20:15:11.967Z,0.90
2019-05-30T20:17:41.935Z,1.03
2019-05-30T20:20:12.801Z,0.87
2019-05-30T20:22:42.389Z,0.80
2019-05-30T20:25:11.772Z,1.00
2019-05-30T20:27:40.902Z,0.87
2019-05-30T20:30:11.587Z,1.00
2019-05-30T20:32:40.908Z,0.73
2019-05-30T20:35:10.911Z,1.00
2019-05-30T20:37:40.776Z,0.73
2019-05-30T20:40:13.478Z,0.50
2019-05-30T20:42:43.080Z,0.83
2019-05-30T20:45:12.569Z,0.87
2019-05-30T20:47:43.113Z,0.83
2019-05-30T20:50:14.866Z,0.77
2019-05-30T20:52:45.414Z,0.70
2019-05-30T20:55:14.533Z,1.00
2019-05-30T20:57:43.625Z,0.87
2019-05-30T21:00:22.244Z,1.00
2019-05-30T21:02:51.424Z,0.70
2019-05-30T21:05:20.690Z,1.17
2019-05-30T21:07:50.770Z,1.00
2019-05-30T21:10:21.986Z,1.33
2019-05-30T21:12:53.152Z,0.93
2019-05-30T21:15:22.129Z,1.20
2019-05-30T21:17:53.068Z,0.80
2019-05-30T21:20:22.175Z,0.70
2019-05-30T21:22:53.851Z,0.97
2019-05-30T21:25:22.762Z,0.90
2019-05-30T21:27:55.281Z,0.90
2019-05-30T21:30:24.191Z,0.70
2019-05-30T21:32:53.541Z,0.87
2019-05-30T21:35:22.530Z,1.00
2019-05-30T21:38:00.702Z,0.90
2019-05-30T21:40:29.604Z,0.90
2019-05-30T21:43:06.500Z,0.73
2019-05-30T21:45:30.510Z,0.97
2019-05-30T21:47:59.415Z,0.90
2019-05-30T21:50:28.310Z,0.80
2019-05-30T21:52:57.682Z,0.90
2019-05-30T21:55:26.674Z,0.87
2019-05-30T21:57:55.728Z,1.07
2019-05-30T22:00:50.856Z,0.70
2019-05-30T22:03:20.245Z,0.87
2019-05-30T22:05:49.892Z,1.03
2019-05-30T22:08:20.462Z,1.00
2019-05-30T22:10:49.682Z,0.80
2019-05-30T22:13:19.286Z,0.90
2019-05-30T22:15:48.309Z,0.77
2019-05-30T22:18:17.284Z,1.07
2019-05-30T22:20:47.934Z,0.93
2019-05-30T22:23:16.899Z,0.70
2019-05-30T22:25:46.313Z,1.03
2019-05-30T22:28:15.673Z,1.00
2019-05-30T22:30:44.546Z,1.00
2019-05-30T22:33:13.601Z,0.90
2019-05-30T22:35:44.789Z,0.83
2019-05-30T22:38:13.873Z,1.00
2019-05-30T22:40:45.811Z,0.73
2019-05-30T22:43:24.932Z,0.97
2019-05-30T22:45:44.187Z,1.67
2019-05-30T22:48:13.184Z,0.90
2019-05-30T22:50:42.519Z,0.90
2019-05-30T22:53:11.391Z,1.00
2019-05-30T22:55:40.255Z,0.97
2019-05-30T22:58:11.921Z,0.73
2019-05-30T23:00:40.899Z,1.27
2019-05-30T23:03:12.527Z,0.87
2019-05-30T23:05:41.463Z,1.10
2019-05-30T23:08:10.318Z,0.97
2019-05-30T23:10:39.227Z,0.83
2019-05-30T23:13:12.526Z,1.00
2019-05-30T23:15:48.128Z,1.00
2019-05-30T23:18:17.763Z,1.03
2019-05-30T23:20:46.840Z,0.80
2019-05-30T23:23:16.802Z,0.73
2019-05-30T23:25:46.999Z,1.10
2019-05-30T23:28:15.982Z,1.00
2019-05-30T23:30:44.874Z,0.83
2019-05-30T23:33:13.792Z,1.13
2019-05-30T23:35:42.655Z,0.87
2019-05-30T23:38:11.517Z,0.90
2019-05-30T23:40:40.401Z,0.93
2019-05-30T23:43:09.270Z,0.67
2019-05-30T23:45:38.174Z,0.70
2019-05-30T23:48:07.083Z,0.87
2019-05-30T23:50:38.848Z,0.90
2019-05-30T23:53:07.700Z,0.87
2019-05-30T23:55:36.623Z,0.80
2019-05-30T23:58:05.496Z,1.00
